createdAt,value
2023-03-13T00:00:25.689Z,12.77
2023-03-13T00:03:14.824Z,13.57
2023-03-13T00:06:01.209Z,16.90
2023-03-13T00:08:47.916Z,24.80
2023-03-13T00:11:34.858Z,15.10
2023-03-13T00:14:21.274Z,20.40
2023-03-13T00:17:09.455Z,12.30
2023-03-13T00:19:56.096Z,17.13
2023-03-13T00:22:42.737Z,16.27
2023-03-13T00:25:29.395Z,11.43
2023-03-13T00:28:16.142Z,11.13
2023-03-13T00:31:04.207Z,15.77
2023-03-13T00:33:53.861Z,13.20
2023-03-13T00:36:40.990Z,13.10
2023-03-13T00:39:27.490Z,16.53
2023-03-13T00:42:14.320Z,11.87
2023-03-13T00:45:01.141Z,15.33
2023-03-13T00:47:50.097Z,13.97
2023-03-13T00:50:38.028Z,17.23
2023-03-13T00:53:24.881Z,13.17
2023-03-13T00:56:13.244Z,19.93
2023-03-13T00:59:01.656Z,16.83
2023-03-13T01:01:48.926Z,13.20
2023-03-13T01:04:35.533Z,13.57
2023-03-13T01:07:23.745Z,16.03
2023-03-13T01:10:11.573Z,14.97
2023-03-13T01:12:58.488Z,12.67
2023-03-13T01:15:45.134Z,20.13
2023-03-13T01:18:32.143Z,18.07
2023-03-13T01:21:22.375Z,9.23
2023-03-13T01:24:11.298Z,20.07
2023-03-13T01:26:57.943Z,17.80
2023-03-13T01:29:44.619Z,17.23
2023-03-13T01:32:34.594Z,21.10
2023-03-13T01:35:22.502Z,25.57
2023-03-13T01:38:09.536Z,18.97
2023-03-13T01:40:58.098Z,17.07
2023-03-13T01:43:45.699Z,20.30
2023-03-13T01:46:32.818Z,19.10
2023-03-13T01:49:25.300Z,15.63
2023-03-13T01:52:24.853Z,19.93
2023-03-13T01:55:22.343Z,16.03
2023-03-13T01:58:13.022Z,17.63
2023-03-13T02:01:00.635Z,14.03
2023-03-13T02:03:48.288Z,17.27
2023-03-13T02:06:40.039Z,16.23
2023-03-13T02:09:31.298Z,19.13
2023-03-13T02:12:26.836Z,18.93
2023-03-13T02:15:17.515Z,18.30
2023-03-13T02:18:05.220Z,20.23
2023-03-13T02:20:57.783Z,16.03
2023-03-13T02:23:54.486Z,12.53
2023-03-13T02:26:42.483Z,13.63
2023-03-13T02:29:29.272Z,16.30
2023-03-13T02:32:16.634Z,14.67
2023-03-13T02:35:07.801Z,17.37
2023-03-13T02:37:58.286Z,13.67
2023-03-13T02:40:48.157Z,13.07
2023-03-13T02:43:38.023Z,15.07
2023-03-13T02:46:25.989Z,12.53
2023-03-13T02:49:22.238Z,16.00
2023-03-13T02:52:15.281Z,10.90
2023-03-13T02:55:10.055Z,11.87
2023-03-13T02:57:56.709Z,19.93
2023-03-13T03:00:44.796Z,17.20
2023-03-13T03:03:31.453Z,15.90
2023-03-13T03:06:18.270Z,9.73
2023-03-13T03:09:06.290Z,21.27
2023-03-13T03:11:55.464Z,23.40
2023-03-13T03:14:42.627Z,11.40
2023-03-13T03:17:30.833Z,18.47
2023-03-13T03:20:17.509Z,13.10
2023-03-13T03:23:04.357Z,18.47
2023-03-13T03:25:52.161Z,11.97
2023-03-13T03:28:39.008Z,18.37
2023-03-13T03:31:31.523Z,17.70
2023-03-13T03:34:19.846Z,13.53
2023-03-13T03:37:07.171Z,11.83
2023-03-13T03:39:53.936Z,16.33
2023-03-13T03:42:40.606Z,17.80
2023-03-13T03:45:27.263Z,16.37
2023-03-13T03:48:14.266Z,16.50
2023-03-13T03:51:02.333Z,17.50
2023-03-13T03:53:50.984Z,15.33
2023-03-13T03:56:37.903Z,12.83
2023-03-13T03:59:25.253Z,12.20
2023-03-13T04:02:17.764Z,15.90
2023-03-13T04:05:05.428Z,15.83
2023-03-13T04:07:56.041Z,15.00
2023-03-13T04:10:42.728Z,14.00
2023-03-13T04:13:29.497Z,16.73
2023-03-13T04:16:18.330Z,12.47
2023-03-13T04:19:07.546Z,16.67
2023-03-13T04:21:55.275Z,10.07
2023-03-13T04:24:43.422Z,13.20
2023-03-13T04:27:30.384Z,17.90
2023-03-13T04:30:18.727Z,9.83
2023-03-13T04:33:27.129Z,17.73
2023-03-13T04:36:43.030Z,11.30
2023-03-13T04:40:03.775Z,16.80
2023-03-13T04:43:13.816Z,10.67
2023-03-13T04:46:20.335Z,20.33
2023-03-13T04:49:10.080Z,11.17
2023-03-13T04:52:28.317Z,18.37
2023-03-13T04:55:40.597Z,12.13
2023-03-13T04:58:47.033Z,13.87
2023-03-13T05:01:47.356Z,15.63
2023-03-13T05:04:54.205Z,18.40
2023-03-13T05:07:50.521Z,11.07
2023-03-13T05:11:10.550Z,17.50
2023-03-13T05:14:19.530Z,13.53
2023-03-13T05:17:32.361Z,11.80
2023-03-13T05:20:38.089Z,11.30
2023-03-13T05:23:31.542Z,14.20
2023-03-13T05:26:38.445Z,17.30
2023-03-13T05:29:54.145Z,12.73
2023-03-13T05:33:06.925Z,14.13
2023-03-13T05:36:11.845Z,8.80
2023-03-13T05:39:05.755Z,13.73
2023-03-13T05:42:02.737Z,16.10
2023-03-13T05:45:10.058Z,23.93
2023-03-13T05:48:15.614Z,17.07
2023-03-13T05:51:21.289Z,20.87
2023-03-13T05:54:18.808Z,15.33
2023-03-13T05:57:25.745Z,17.47
2023-03-13T06:00:38.753Z,11.77
2023-03-13T06:04:01.210Z,15.10
2023-03-13T06:06:49.780Z,16.67
2023-03-13T06:09:38.154Z,15.13
2023-03-13T06:12:26.390Z,17.90
2023-03-13T06:15:13.402Z,18.20
2023-03-13T06:18:19.186Z,15.83
2023-03-13T06:21:06.229Z,11.30
2023-03-13T06:23:52.887Z,15.23
2023-03-13T06:26:39.638Z,13.00
2023-03-13T06:29:28.305Z,14.63
2023-03-13T06:32:15.033Z,19.87
2023-03-13T06:35:01.693Z,14.10
2023-03-13T06:37:48.396Z,12.63
2023-03-13T06:40:35.236Z,15.73
2023-03-13T06:43:22.583Z,16.50
2023-03-13T06:46:18.448Z,8.97
2023-03-13T06:49:06.210Z,8.97
2023-03-13T06:51:52.753Z,24.13
2023-03-13T06:54:39.721Z,14.83
2023-03-13T06:57:26.523Z,16.67
2023-03-13T07:00:14.121Z,15.83
2023-03-13T07:03:02.020Z,19.07
2023-03-13T07:05:48.920Z,11.00
2023-03-13T07:08:37.015Z,22.50
2023-03-13T07:11:23.801Z,14.70
2023-03-13T07:14:16.960Z,19.40
2023-03-13T07:17:04.116Z,18.90
2023-03-13T07:19:52.399Z,10.33
2023-03-13T07:22:39.446Z,9.73
2023-03-13T07:25:26.745Z,9.67
2023-03-13T07:28:13.542Z,16.03
2023-03-13T07:31:08.454Z,14.70
2023-03-13T07:33:56.635Z,16.90
2023-03-13T07:36:44.509Z,16.00
2023-03-13T07:39:31.321Z,17.40
2023-03-13T07:42:18.089Z,10.77
2023-03-13T07:45:06.513Z,23.23
2023-03-13T07:47:53.258Z,16.83
2023-03-13T07:50:40.169Z,12.67
2023-03-13T07:53:30.902Z,12.97
2023-03-13T07:56:19.275Z,11.77
2023-03-13T07:59:05.678Z,19.90
2023-03-13T08:01:52.479Z,20.57
2023-03-13T08:04:39.150Z,11.97
2023-03-13T08:07:25.705Z,16.83
2023-03-13T08:10:14.142Z,15.00
2023-03-13T08:13:00.877Z,10.70
2023-03-13T08:15:47.582Z,10.77
2023-03-13T08:18:35.844Z,21.80
2023-03-13T08:21:25.457Z,14.17
2023-03-13T08:24:13.381Z,20.83
2023-03-13T08:27:01.582Z,9.67
2023-03-13T08:29:48.406Z,14.47
2023-03-13T08:32:35.357Z,11.47
2023-03-13T08:35:22.558Z,11.60
2023-03-13T08:38:09.361Z,8.07
2023-03-13T08:40:58.310Z,14.20
2023-03-13T08:43:46.935Z,9.40
2023-03-13T08:46:35.818Z,9.10
2023-03-13T08:49:22.645Z,13.73
2023-03-13T08:52:09.653Z,9.10
2023-03-13T08:54:56.260Z,9.40
2023-03-13T08:57:43.070Z,29.70
2023-03-13T09:00:31.334Z,11.00
2023-03-13T09:03:18.644Z,11.83
2023-03-13T09:06:05.934Z,8.17
2023-03-13T09:08:52.992Z,8.00
2023-03-13T09:11:40.460Z,11.63
2023-03-13T09:14:27.410Z,13.13
2023-03-13T09:17:15.353Z,15.70
2023-03-13T09:20:02.177Z,7.93
2023-03-13T09:22:49.042Z,13.30
2023-03-13T09:25:35.752Z,10.63
2023-03-13T09:28:22.888Z,10.97
2023-03-13T09:31:10.450Z,12.97
2023-03-13T09:33:58.504Z,6.37
2023-03-13T09:36:45.234Z,9.17
2023-03-13T09:39:32.299Z,12.30
2023-03-13T09:42:21.777Z,8.13
2023-03-13T09:45:14.789Z,9.77
2023-03-13T09:48:06.833Z,6.93
2023-03-13T09:51:02.818Z,13.50
2023-03-13T09:53:54.625Z,10.73
2023-03-13T09:56:46.653Z,12.73
2023-03-13T09:59:43.686Z,13.37
2023-03-13T10:02:35.121Z,8.87
2023-03-13T10:05:24.238Z,6.63
2023-03-13T10:08:17.330Z,7.37
2023-03-13T10:11:08.008Z,12.23
2023-03-13T10:14:00.889Z,8.17
2023-03-13T10:16:56.398Z,4.90
2023-03-13T10:19:44.660Z,9.33
2023-03-13T10:22:32.976Z,12.63
2023-03-13T10:25:29.759Z,5.93
2023-03-13T10:28:19.415Z,5.67
2023-03-13T10:31:13.475Z,6.00
2023-03-13T10:34:07.980Z,9.37
2023-03-13T10:37:00.459Z,12.47
2023-03-13T10:39:46.803Z,10.70
2023-03-13T10:42:39.343Z,9.53
2023-03-13T10:45:26.427Z,3.87
2023-03-13T10:48:15.392Z,7.60
2023-03-13T10:51:02.575Z,8.83
2023-03-13T10:53:51.568Z,9.77
2023-03-13T10:56:38.141Z,7.57
2023-03-13T10:59:28.073Z,9.63
2023-03-13T11:02:23.799Z,6.47
2023-03-13T11:05:36.153Z,7.47
2023-03-13T11:08:27.388Z,4.00
2023-03-13T11:11:19.607Z,8.23
2023-03-13T11:14:13.878Z,11.63
2023-03-13T11:17:10.987Z,2.20
2023-03-13T11:20:09.402Z,3.87
2023-03-13T11:23:14.620Z,5.27
2023-03-13T11:26:07.742Z,8.13
2023-03-13T11:28:59.627Z,7.27
2023-03-13T11:31:50.412Z,6.47
2023-03-13T11:34:46.230Z,4.37
2023-03-13T11:37:34.862Z,2.90
2023-03-13T11:40:28.253Z,5.47
2023-03-13T11:43:28.522Z,3.97
2023-03-13T11:46:24.314Z,5.73
2023-03-13T11:49:34.070Z,3.37
2023-03-13T11:52:33.226Z,6.07
2023-03-13T11:55:33.440Z,4.20
2023-03-13T11:58:33.243Z,8.43
2023-03-13T12:01:21.854Z,1.80
2023-03-13T12:04:18.668Z,4.10
2023-03-13T12:07:11.560Z,3.23
2023-03-13T12:10:03.421Z,2.73
2023-03-13T12:12:57.409Z,3.70
2023-03-13T12:15:48.000Z,2.43
2023-03-13T12:18:38.567Z,2.73
2023-03-13T12:21:32.281Z,4.10
2023-03-13T12:24:27.645Z,1.83
2023-03-13T12:27:21.150Z,1.43
2023-03-13T12:30:16.561Z,4.80
2023-03-13T12:33:14.632Z,3.33
2023-03-13T12:36:09.241Z,2.73
2023-03-13T12:39:00.024Z,4.53
2023-03-13T12:41:52.447Z,2.10
2023-03-13T12:44:41.201Z,4.10
2023-03-13T12:47:33.063Z,2.10
2023-03-13T12:50:29.812Z,1.93
2023-03-13T12:53:39.923Z,2.20
2023-03-13T12:56:38.679Z,1.83
2023-03-13T12:59:29.963Z,1.87
2023-03-13T13:02:21.559Z,2.20
2023-03-13T13:05:19.138Z,1.67
2023-03-13T13:08:06.343Z,2.13
2023-03-13T13:10:53.032Z,1.93
2023-03-13T13:13:41.135Z,1.50
2023-03-13T13:16:28.871Z,0.70
2023-03-13T13:19:48.522Z,1.77
2023-03-13T13:22:52.858Z,1.50
2023-03-13T13:25:39.708Z,4.67
2023-03-13T13:28:36.635Z,2.23
2023-03-13T13:31:59.566Z,1.67
2023-03-13T13:35:03.004Z,1.60
2023-03-13T13:37:50.307Z,1.63
2023-03-13T13:40:37.274Z,1.20
2023-03-13T13:43:25.518Z,1.10
2023-03-13T13:46:24.913Z,1.60
2023-03-13T13:49:19.525Z,1.03
2023-03-13T13:52:33.488Z,1.83
2023-03-13T13:55:41.922Z,1.77
2023-03-13T13:58:32.476Z,1.10
2023-03-13T14:01:19.590Z,1.30
2023-03-13T14:04:15.743Z,1.17
2023-03-13T14:07:07.139Z,1.17
2023-03-13T14:10:12.430Z,2.47
2023-03-13T14:13:00.575Z,2.07
2023-03-13T14:15:49.014Z,1.30
2023-03-13T14:18:44.937Z,1.03
2023-03-13T14:21:33.233Z,0.97
2023-03-13T14:24:25.111Z,1.07
2023-03-13T14:27:22.722Z,1.00
2023-03-13T14:30:13.413Z,1.10
2023-03-13T14:33:09.500Z,1.80
2023-03-13T14:36:12.208Z,1.07
2023-03-13T14:39:17.184Z,1.17
2023-03-13T14:42:11.090Z,2.07
2023-03-13T14:45:00.256Z,1.93
2023-03-13T14:47:49.920Z,2.50
2023-03-13T14:50:37.854Z,4.20
2023-03-13T14:53:27.306Z,2.13
2023-03-13T14:56:29.955Z,1.47
2023-03-13T14:59:35.873Z,3.40
2023-03-13T15:05:50.305Z,1.90
2023-03-13T15:08:59.492Z,4.80
2023-03-13T15:12:03.846Z,1.80
2023-03-13T15:14:58.214Z,1.30
2023-03-13T15:18:21.698Z,2.80
2023-03-13T15:21:31.529Z,1.30
2023-03-13T15:24:24.852Z,1.50
2023-03-13T15:27:28.312Z,1.20
2023-03-13T15:30:19.652Z,1.40
2023-03-13T15:33:22.389Z,1.83
2023-03-13T15:36:16.759Z,3.03
2023-03-13T15:39:12.634Z,2.47
2023-03-13T15:42:19.602Z,1.40
2023-03-13T15:45:21.853Z,2.70
2023-03-13T15:48:23.644Z,3.37
2023-03-13T15:51:18.043Z,3.63
2023-03-13T15:54:10.172Z,1.83
2023-03-13T15:57:09.555Z,1.50
2023-03-13T16:00:02.432Z,1.67
2023-03-13T16:03:02.087Z,3.83
2023-03-13T16:06:04.837Z,1.73
2023-03-13T16:09:11.221Z,3.40
2023-03-13T16:12:15.128Z,3.00
2023-03-13T16:15:11.234Z,1.90
2023-03-13T16:18:21.182Z,1.20
2023-03-13T16:21:24.485Z,1.40
2023-03-13T16:24:28.716Z,2.40
2023-03-13T16:27:26.210Z,2.97
2023-03-13T16:30:33.686Z,4.00
2023-03-13T16:33:46.194Z,1.90
2023-03-13T16:36:44.692Z,2.90
2023-03-13T16:39:35.387Z,3.30
2023-03-13T16:42:30.350Z,1.60
2023-03-13T16:45:26.428Z,4.07
2023-03-13T16:48:35.304Z,2.43
2023-03-13T16:51:37.539Z,2.07
2023-03-13T16:54:37.093Z,4.27
2023-03-13T16:57:47.923Z,1.87
2023-03-13T17:01:04.370Z,2.27
2023-03-13T17:04:03.745Z,1.83
2023-03-13T17:07:00.755Z,3.43
2023-03-13T17:09:56.162Z,1.77
2023-03-13T17:12:48.300Z,5.40
2023-03-13T17:15:52.373Z,1.37
2023-03-13T17:18:43.428Z,5.97
2023-03-13T17:21:55.464Z,2.30
2023-03-13T17:24:44.791Z,3.47
2023-03-13T17:27:36.389Z,2.30
2023-03-13T17:30:26.891Z,3.83
2023-03-13T17:33:15.379Z,2.37
2023-03-13T17:36:05.497Z,1.77
2023-03-13T17:38:56.778Z,5.43
2023-03-13T17:41:44.928Z,3.23
2023-03-13T17:44:35.802Z,6.10
2023-03-13T17:47:26.513Z,2.07
2023-03-13T17:50:20.785Z,2.50
2023-03-13T17:53:10.189Z,2.77
2023-03-13T17:56:01.989Z,1.77
2023-03-13T17:59:02.180Z,2.43
2023-03-13T18:02:06.909Z,2.57
2023-03-13T18:05:04.719Z,1.73
2023-03-13T18:08:11.415Z,4.80
2023-03-13T18:11:07.851Z,2.67
2023-03-13T18:14:22.000Z,2.00
2023-03-13T18:17:23.326Z,4.90
2023-03-13T18:20:20.832Z,3.93
2023-03-13T18:23:11.173Z,4.03
2023-03-13T18:26:02.696Z,2.40
2023-03-13T18:28:59.961Z,1.90
2023-03-13T18:32:07.766Z,3.03
2023-03-13T18:35:06.799Z,4.13
2023-03-13T18:37:59.331Z,2.87
2023-03-13T18:40:51.241Z,2.13
2023-03-13T18:43:44.309Z,3.77
2023-03-13T18:46:39.164Z,2.00
2023-03-13T18:49:31.782Z,3.10
2023-03-13T18:52:23.845Z,2.23
2023-03-13T18:55:12.582Z,10.60
2023-03-13T18:58:00.646Z,2.87
2023-03-13T19:00:49.266Z,4.00
2023-03-13T19:03:37.961Z,2.87
2023-03-13T19:06:29.062Z,3.20
2023-03-13T19:09:42.264Z,2.23
2023-03-13T19:12:32.445Z,3.57
2023-03-13T19:15:25.765Z,2.03
2023-03-13T19:18:14.354Z,3.10
2023-03-13T19:21:03.104Z,1.83
2023-03-13T19:23:53.386Z,2.10
2023-03-13T19:26:45.331Z,2.10
2023-03-13T19:29:37.629Z,1.87
2023-03-13T19:32:26.219Z,2.23
2023-03-13T19:35:19.268Z,1.77
2023-03-13T19:38:06.605Z,2.77
2023-03-13T19:40:53.519Z,3.10
2023-03-13T19:43:43.088Z,2.33
2023-03-13T19:46:31.121Z,2.63
2023-03-13T19:49:20.330Z,3.13
2023-03-13T19:52:08.463Z,2.33
2023-03-13T19:54:56.293Z,2.87
2023-03-13T19:57:43.345Z,4.57
2023-03-13T20:00:31.370Z,4.93
2023-03-13T20:03:18.229Z,2.10
2023-03-13T20:06:05.448Z,3.77
2023-03-13T20:08:55.534Z,2.67
2023-03-13T20:11:42.308Z,6.83
2023-03-13T20:14:30.631Z,2.37
2023-03-13T20:17:18.519Z,1.90
2023-03-13T20:20:08.543Z,3.63
2023-03-13T20:22:57.196Z,2.73
2023-03-13T20:25:46.098Z,3.33
2023-03-13T20:28:32.924Z,4.67
2023-03-13T20:31:22.047Z,5.20
2023-03-13T20:34:10.043Z,2.10
2023-03-13T20:36:57.279Z,4.23
2023-03-13T20:39:43.856Z,2.17
2023-03-13T20:42:30.603Z,2.10
2023-03-13T20:45:17.576Z,2.37
2023-03-13T20:48:04.009Z,4.93
2023-03-13T20:50:53.705Z,2.60
2023-03-13T20:53:41.763Z,2.63
2023-03-13T20:56:28.612Z,3.47
2023-03-13T20:59:15.283Z,5.10
2023-03-13T21:02:02.375Z,3.13
2023-03-13T21:04:49.249Z,3.33
2023-03-13T21:07:37.375Z,2.67
2023-03-13T21:10:24.125Z,3.00
2023-03-13T21:13:11.851Z,2.97
2023-03-13T21:16:04.500Z,3.07
2023-03-13T21:18:51.962Z,4.43
2023-03-13T21:21:38.764Z,4.63
2023-03-13T21:24:26.962Z,3.30
2023-03-13T21:27:14.361Z,2.57
2023-03-13T21:30:01.055Z,3.27
2023-03-13T21:32:49.017Z,4.53
2023-03-13T21:35:35.907Z,5.07
2023-03-13T21:38:23.166Z,2.87
2023-03-13T21:41:12.889Z,7.83
2023-03-13T21:43:59.569Z,3.50
2023-03-13T21:46:48.817Z,2.50
2023-03-13T21:49:35.682Z,4.13
2023-03-13T21:52:23.455Z,4.90
2023-03-13T21:55:13.145Z,3.67
2023-03-13T21:58:01.161Z,2.83
2023-03-13T22:00:47.918Z,2.30
2023-03-13T22:03:34.717Z,3.53
2023-03-13T22:06:23.506Z,4.70
2023-03-13T22:09:10.014Z,3.57
2023-03-13T22:11:56.641Z,3.57
2023-03-13T22:14:44.874Z,2.10
2023-03-13T22:17:31.637Z,2.20
2023-03-13T22:20:18.564Z,2.27
2023-03-13T22:23:04.945Z,2.33
2023-03-13T22:25:51.800Z,2.20
2023-03-13T22:28:38.713Z,1.80
2023-03-13T22:31:26.513Z,3.90
2023-03-13T22:34:13.369Z,2.03
2023-03-13T22:37:00.345Z,1.60
2023-03-13T22:39:46.801Z,2.00
2023-03-13T22:42:33.636Z,2.57
2023-03-13T22:45:20.934Z,4.83
2023-03-13T22:48:09.181Z,2.13
2023-03-13T22:51:03.281Z,2.63
2023-03-13T22:53:49.928Z,1.70
2023-03-13T22:56:36.888Z,3.73
2023-03-13T22:59:23.354Z,1.60
2023-03-13T23:02:10.140Z,1.77
2023-03-13T23:05:01.293Z,1.47
2023-03-13T23:07:50.393Z,3.60
2023-03-13T23:10:37.200Z,2.27
2023-03-13T23:13:23.547Z,1.63
2023-03-13T23:16:12.199Z,2.30
2023-03-13T23:18:58.856Z,1.53
2023-03-13T23:21:46.951Z,1.70
2023-03-13T23:24:33.595Z,3.30
2023-03-13T23:27:20.380Z,1.60
2023-03-13T23:30:09.799Z,2.07
2023-03-13T23:32:56.570Z,3.73
2023-03-13T23:35:44.071Z,1.40
2023-03-13T23:38:32.168Z,1.47
2023-03-13T23:41:19.952Z,2.27
2023-03-13T23:44:10.130Z,1.50
2023-03-13T23:47:00.704Z,2.70
2023-03-13T23:49:48.956Z,1.00
2023-03-13T23:52:36.251Z,3.77
2023-03-13T23:55:25.479Z,1.57
2023-03-13T23:58:12.395Z,4.10
